createdAt,value
2018-07-08T00:02:15.309Z,61.91
2018-07-08T00:04:43.454Z,61.84
2018-07-08T00:07:11.569Z,60.69
2018-07-08T00:09:39.757Z,60.46
2018-07-08T00:12:07.936Z,60.29
2018-07-08T00:14:36.049Z,60.15
2018-07-08T00:17:04.153Z,59.91
2018-07-08T00:19:32.664Z,60.07
2018-07-08T00:22:01.449Z,59.63
2018-07-08T00:24:29.562Z,59.84
2018-07-08T00:26:57.931Z,59.85
2018-07-08T00:29:26.024Z,60.14
2018-07-08T00:31:54.312Z,60.93
2018-07-08T00:34:22.686Z,60.81
2018-07-08T00:36:51.018Z,61.57
2018-07-08T00:39:19.139Z,61.43
2018-07-08T00:41:47.224Z,61.85
2018-07-08T00:44:15.348Z,61.30
2018-07-08T00:46:44.024Z,61.97
2018-07-08T00:49:12.142Z,62.02
2018-07-08T00:51:40.252Z,62.10
2018-07-08T00:54:08.385Z,61.33
2018-07-08T00:56:36.475Z,61.93
2018-07-08T00:59:04.613Z,61.41
2018-07-08T01:01:33.133Z,61.75
2018-07-08T01:04:01.355Z,61.79
2018-07-08T01:06:29.685Z,62.32
2018-07-08T01:08:57.812Z,61.73
2018-07-08T01:11:25.886Z,62.48
2018-07-08T01:13:54.224Z,62.48
2018-07-08T01:16:22.340Z,61.87
2018-07-08T01:18:50.451Z,61.89
2018-07-08T01:21:18.580Z,60.93
2018-07-08T01:23:47.559Z,61.66
2018-07-08T01:26:15.644Z,62.65
2018-07-08T01:28:43.752Z,62.71
2018-07-08T01:31:12.744Z,63.07
2018-07-08T01:33:40.855Z,62.96
2018-07-08T01:36:09.527Z,63.58
2018-07-08T01:38:37.656Z,64.37
2018-07-08T01:41:05.971Z,64.45
2018-07-08T01:43:34.105Z,65.08
2018-07-08T01:46:02.452Z,65.40
2018-07-08T01:48:31.312Z,65.65
2018-07-08T01:50:59.403Z,65.82
2018-07-08T01:53:27.510Z,66.20
2018-07-08T01:55:55.943Z,67.07
2018-07-08T01:58:24.181Z,66.92
2018-07-08T02:00:52.637Z,67.20
2018-07-08T02:03:20.737Z,67.80
2018-07-08T02:05:49.712Z,67.86
2018-07-08T02:08:17.812Z,67.89
2018-07-08T02:10:45.905Z,68.18
2018-07-08T02:13:14.060Z,68.59
2018-07-08T02:15:42.743Z,68.70
2018-07-08T02:18:10.842Z,68.39
2018-07-08T02:20:39.818Z,67.60
2018-07-08T02:23:07.903Z,68.16
2018-07-08T02:25:36.044Z,67.92
2018-07-08T02:28:04.192Z,67.81
2018-07-08T02:30:33.400Z,67.49
2018-07-08T02:33:01.891Z,67.47
2018-07-08T02:35:29.984Z,67.50
2018-07-08T02:37:58.582Z,67.44
2018-07-08T02:40:26.709Z,67.19
2018-07-08T02:42:54.794Z,67.59
2018-07-08T02:45:22.916Z,67.68
2018-07-08T02:47:51.036Z,67.24
2018-07-08T02:50:19.138Z,67.29
2018-07-08T02:52:47.235Z,67.38
2018-07-08T02:55:15.904Z,67.24
2018-07-08T02:57:43.970Z,67.90
2018-07-08T03:00:12.084Z,67.88
2018-07-08T03:02:40.204Z,67.58
2018-07-08T03:05:08.357Z,68.59
2018-07-08T03:07:37.328Z,68.40
2018-07-08T03:10:06.572Z,68.68
2018-07-08T03:12:34.660Z,69.33
2018-07-08T03:15:02.754Z,69.96
2018-07-08T03:17:31.453Z,69.83
2018-07-08T03:19:59.545Z,70.61
2018-07-08T03:22:27.892Z,70.61
2018-07-08T03:24:55.991Z,71.85
2018-07-08T03:27:24.096Z,72.40
2018-07-08T03:29:53.826Z,73.93
2018-07-08T03:32:21.942Z,74.02
2018-07-08T03:34:50.044Z,74.50
2018-07-08T03:37:18.710Z,74.81
2018-07-08T03:39:46.828Z,74.28
2018-07-08T03:42:15.008Z,74.64
2018-07-08T03:44:43.377Z,74.80
2018-07-08T03:47:11.624Z,74.54
2018-07-08T03:49:39.732Z,73.86
2018-07-08T03:52:07.805Z,73.76
2018-07-08T03:54:36.829Z,73.97
2018-07-08T03:57:05.928Z,73.24
2018-07-08T03:59:34.032Z,73.39
2018-07-08T04:02:02.120Z,73.04
2018-07-08T04:04:30.212Z,72.97
2018-07-08T04:06:58.374Z,73.25
2018-07-08T04:09:26.463Z,73.30
2018-07-08T04:11:54.521Z,73.47
2018-07-08T04:14:22.598Z,73.00
2018-07-08T04:16:50.681Z,73.62
2018-07-08T04:19:18.925Z,73.10
2018-07-08T04:21:47.000Z,73.54
2018-07-08T04:24:15.183Z,73.41
2018-07-08T04:26:43.319Z,73.61
2018-07-08T04:29:11.532Z,73.81
2018-07-08T04:31:39.625Z,73.44
2018-07-08T04:34:07.717Z,69.21
2018-07-08T04:36:35.780Z,65.11
2018-07-08T04:39:04.792Z,62.54
2018-07-08T04:41:32.883Z,59.98
2018-07-08T04:44:00.962Z,57.98
2018-07-08T04:46:29.042Z,56.66
2018-07-08T04:48:57.161Z,55.67
2018-07-08T04:51:25.238Z,53.10
2018-07-08T04:53:53.356Z,50.63
2018-07-08T04:56:21.443Z,50.50
2018-07-08T04:58:49.559Z,48.83
2018-07-08T05:01:17.630Z,47.35
2018-07-08T05:03:45.701Z,43.66
2018-07-08T05:06:13.772Z,42.43
2018-07-08T05:08:41.846Z,43.05
2018-07-08T05:11:10.045Z,42.21
2018-07-08T05:13:38.132Z,43.24
2018-07-08T05:16:06.240Z,44.52
2018-07-08T05:18:34.311Z,46.66
2018-07-08T05:21:02.417Z,47.07
2018-07-08T05:23:30.588Z,46.09
2018-07-08T05:25:58.680Z,43.21
2018-07-08T05:28:26.748Z,41.18
2018-07-08T05:30:54.845Z,38.64
2018-07-08T05:33:22.941Z,38.60
2018-07-08T05:35:51.453Z,37.15
2018-07-08T05:38:19.588Z,37.65
2018-07-08T05:40:47.647Z,36.59
2018-07-08T05:43:15.707Z,33.51
2018-07-08T05:45:43.804Z,34.63
2018-07-08T05:48:11.949Z,33.76
2018-07-08T06:10:10.988Z,37.13
2018-07-08T06:12:39.064Z,36.22
2018-07-08T06:15:07.138Z,35.70
2018-07-08T06:17:35.207Z,33.88
2018-07-08T06:20:03.365Z,33.00
2018-07-08T06:22:31.504Z,30.81
2018-07-08T06:24:59.564Z,31.99
2018-07-08T06:27:27.642Z,32.05
2018-07-08T06:29:55.709Z,29.92
2018-07-08T06:32:23.796Z,29.80
2018-07-08T06:34:51.897Z,30.22
2018-07-08T06:37:20.008Z,30.28
2018-07-08T06:39:48.100Z,29.87
2018-07-08T06:42:16.165Z,28.18
2018-07-08T06:44:44.306Z,31.59
2018-07-08T06:47:13.031Z,32.88
2018-07-08T06:49:41.208Z,37.17
2018-07-08T06:52:09.283Z,38.68
2018-07-08T06:54:37.387Z,43.16
2018-07-08T06:57:06.076Z,43.44
2018-07-08T06:59:34.264Z,44.18
2018-07-08T07:02:02.447Z,45.18
2018-07-08T07:04:30.524Z,45.95
2018-07-08T07:06:58.648Z,46.35
2018-07-08T07:09:26.733Z,44.17
2018-07-08T07:11:54.856Z,46.08
2018-07-08T07:14:22.957Z,46.59
2018-07-08T07:16:51.026Z,50.06
2018-07-08T07:19:19.089Z,45.62
2018-07-08T07:21:47.168Z,45.12
2018-07-08T07:24:15.244Z,45.34
2018-07-08T07:26:44.286Z,44.14
2018-07-08T07:29:12.371Z,44.68
2018-07-08T07:31:40.476Z,43.89
2018-07-08T07:34:08.626Z,46.58
2018-07-08T07:36:36.698Z,47.14
2018-07-08T07:39:05.885Z,45.20
2018-07-08T07:41:33.958Z,44.63
2018-07-08T07:44:02.035Z,46.16
2018-07-08T07:46:30.153Z,42.84
2018-07-08T07:48:58.272Z,42.18
2018-07-08T07:51:26.383Z,43.57
2018-07-08T07:53:55.622Z,42.89
2018-07-08T07:56:23.722Z,41.27
2018-07-08T07:58:51.855Z,44.02
2018-07-08T08:01:19.928Z,41.01
2018-07-08T08:03:48.402Z,41.52
2018-07-08T08:06:16.472Z,40.25
2018-07-08T08:08:45.561Z,41.39
2018-07-08T08:11:14.164Z,40.30
2018-07-08T08:14:04.804Z,39.55
2018-07-08T08:16:32.934Z,39.71
2018-07-08T08:19:02.048Z,40.82
2018-07-08T08:21:30.159Z,39.67
2018-07-08T08:23:59.133Z,39.98
2018-07-08T08:26:28.240Z,40.76
2018-07-08T08:28:56.309Z,39.40
2018-07-08T08:31:24.487Z,40.35
2018-07-08T08:35:03.195Z,41.47
2018-07-08T08:37:32.383Z,43.51
2018-07-08T08:40:00.621Z,41.53
2018-07-08T08:42:28.903Z,40.96
2018-07-08T08:44:57.741Z,38.49
2018-07-08T08:47:27.004Z,40.03
2018-07-08T08:49:55.305Z,39.43
2018-07-08T08:52:23.588Z,43.48
2018-07-08T08:54:51.966Z,39.57
2018-07-08T08:57:20.065Z,39.24
2018-07-08T08:59:48.183Z,39.00
2018-07-08T09:02:16.290Z,39.34
2018-07-08T09:04:44.712Z,40.90
2018-07-08T09:07:14.086Z,39.41
2018-07-08T09:09:42.170Z,39.09
2018-07-08T09:12:11.139Z,40.25
2018-07-08T09:14:39.520Z,39.27
2018-07-08T09:17:07.717Z,38.73
2018-07-08T09:19:35.845Z,40.66
2018-07-08T09:22:03.999Z,39.05
2018-07-08T09:24:32.153Z,39.18
2018-07-08T09:27:00.220Z,38.60
2018-07-08T09:29:28.337Z,39.62
2018-07-08T09:31:56.719Z,39.23
2018-07-08T09:34:24.792Z,38.99
2018-07-08T09:36:52.880Z,38.92
2018-07-08T09:39:20.994Z,39.03
2018-07-08T09:41:49.085Z,39.82
2018-07-08T09:44:17.912Z,39.79
2018-07-08T09:46:47.019Z,38.48
2018-07-08T09:49:15.384Z,39.87
2018-07-08T09:51:43.876Z,38.92
2018-07-08T09:54:12.940Z,39.26
2018-07-08T09:56:41.099Z,38.05
2018-07-08T09:59:09.165Z,39.17
2018-07-08T10:01:42.359Z,39.53
2018-07-08T10:04:11.945Z,39.28
2018-07-08T10:06:40.421Z,40.70
2018-07-08T10:09:10.412Z,39.77
2018-07-08T10:11:38.748Z,38.65
2018-07-08T10:14:07.198Z,41.33
2018-07-08T10:16:35.259Z,38.96
2018-07-08T10:19:03.346Z,38.64
2018-07-08T10:21:32.551Z,38.51
2018-07-08T10:24:00.553Z,40.45
2018-07-08T10:26:28.685Z,39.94
2018-07-08T10:28:56.865Z,39.95
2018-07-08T10:31:36.430Z,37.46
2018-07-08T10:34:04.822Z,36.97
2018-07-08T10:36:33.653Z,36.46
2018-07-08T10:39:01.750Z,37.64
2018-07-08T10:41:29.830Z,37.35
2018-07-08T10:43:58.016Z,37.26
2018-07-08T10:46:26.136Z,38.02
2018-07-08T10:48:54.240Z,38.31
2018-07-08T10:51:22.337Z,38.31
2018-07-08T10:53:50.419Z,36.72
2018-07-08T10:56:19.172Z,36.49
2018-07-08T10:58:47.282Z,37.01
2018-07-08T11:01:15.354Z,37.35
2018-07-08T11:03:44.063Z,36.26
2018-07-08T11:06:12.709Z,36.49
2018-07-08T11:08:40.885Z,36.49
2018-07-08T11:11:09.028Z,35.52
2018-07-08T11:13:37.594Z,36.60
2018-07-08T11:16:05.665Z,37.74
2018-07-08T11:18:33.761Z,38.14
2018-07-08T11:21:01.860Z,35.08
2018-07-08T11:23:30.007Z,34.65
2018-07-08T11:25:58.132Z,34.57
2018-07-08T11:28:26.305Z,35.88
2018-07-08T11:30:54.343Z,37.44
2018-07-08T11:33:23.334Z,35.66
2018-07-08T11:35:51.412Z,37.79
2018-07-08T11:38:19.513Z,35.81
2018-07-08T11:40:47.593Z,36.80
2018-07-08T11:43:15.674Z,35.66
2018-07-08T11:45:43.737Z,34.13
2018-07-08T11:48:11.823Z,35.97
2018-07-08T11:50:39.910Z,34.06
2018-07-08T11:53:08.016Z,36.04
2018-07-08T11:55:36.129Z,37.03
2018-07-08T11:58:11.141Z,34.23
2018-07-08T12:00:39.232Z,34.03
2018-07-08T12:03:07.320Z,34.70
2018-07-08T12:05:35.398Z,34.62
2018-07-08T12:08:03.553Z,34.64
2018-07-08T12:10:31.641Z,34.79
2018-07-08T12:12:59.696Z,35.83
2018-07-08T12:15:27.801Z,35.29
2018-07-08T12:17:55.876Z,34.14
2018-07-08T12:20:23.983Z,33.33
2018-07-08T12:22:52.380Z,33.99
2018-07-08T12:25:20.468Z,32.81
2018-07-08T12:27:48.564Z,33.25
2018-07-08T12:30:16.643Z,33.05
2018-07-08T12:32:44.723Z,33.32
2018-07-08T12:35:12.813Z,33.74
2018-07-08T12:37:40.880Z,34.27
2018-07-08T12:40:08.971Z,33.41
2018-07-08T12:42:37.077Z,34.84
2018-07-08T12:45:05.168Z,36.04
2018-07-08T12:47:33.260Z,33.88
2018-07-08T12:50:01.349Z,35.05
2018-07-08T12:52:29.434Z,33.51
2018-07-08T12:54:57.607Z,33.25
2018-07-08T12:57:25.684Z,33.57
2018-07-08T12:59:53.761Z,34.23
2018-07-08T13:02:21.885Z,33.90
2018-07-08T13:04:49.953Z,33.19
2018-07-08T13:07:18.072Z,33.46
2018-07-08T13:09:46.160Z,32.43
2018-07-08T13:12:14.252Z,34.00
2018-07-08T13:14:42.345Z,34.88
2018-07-08T13:17:10.433Z,34.12
2018-07-08T13:19:38.504Z,34.52
2018-07-08T13:22:06.598Z,33.28
2018-07-08T13:24:34.685Z,33.66
2018-07-08T13:27:02.774Z,33.04
2018-07-08T13:29:30.863Z,35.48
2018-07-08T13:31:58.989Z,33.87
2018-07-08T13:34:27.056Z,32.51
2018-07-08T13:36:55.577Z,33.67
2018-07-08T13:39:23.645Z,34.39
2018-07-08T13:41:51.738Z,32.79
2018-07-08T13:44:19.825Z,34.89
2018-07-08T13:46:47.917Z,32.58
2018-07-08T13:49:15.998Z,32.01
2018-07-08T13:51:44.095Z,32.37
2018-07-08T13:54:12.181Z,32.58
2018-07-08T13:56:40.278Z,32.42
2018-07-08T13:59:08.364Z,31.83
2018-07-08T14:01:36.464Z,32.48
2018-07-08T14:04:04.567Z,31.01
2018-07-08T14:06:32.695Z,30.25
2018-07-08T14:09:00.784Z,30.30
2018-07-08T14:11:35.742Z,29.98
2018-07-08T14:14:04.441Z,26.62
2018-07-08T14:16:32.626Z,26.33
2018-07-08T14:19:00.698Z,25.80
2018-07-08T14:41:58.597Z,26.09
2018-07-08T14:44:26.936Z,23.90
2018-07-08T14:46:55.000Z,24.26
2018-07-08T14:49:23.072Z,27.29
2018-07-08T14:51:51.219Z,22.84
2018-07-08T14:54:19.367Z,23.63
2018-07-08T14:56:47.450Z,24.90
2018-07-08T14:59:15.579Z,22.73
2018-07-08T15:01:43.940Z,25.47
2018-07-08T15:04:12.010Z,23.10
2018-07-08T15:06:43.644Z,22.64
2018-07-08T15:09:13.879Z,21.41
2018-07-08T15:11:43.440Z,22.40
2018-07-08T15:16:45.819Z,22.16
2018-07-08T15:19:13.904Z,22.34
2018-07-08T15:21:42.105Z,21.52
2018-07-08T15:24:10.152Z,22.08
2018-07-08T15:26:38.226Z,21.86
2018-07-08T15:29:06.299Z,21.86
2018-07-08T15:31:34.376Z,22.54
2018-07-08T15:34:02.440Z,22.17
2018-07-08T15:36:30.521Z,22.58
2018-07-08T15:38:58.653Z,23.94
2018-07-08T15:41:26.739Z,24.19
2018-07-08T15:43:55.309Z,20.65
2018-07-08T15:46:23.405Z,20.19
2018-07-08T15:48:51.496Z,21.92
2018-07-08T15:51:19.665Z,20.81
2018-07-08T15:53:47.738Z,20.16
2018-07-08T15:56:15.808Z,20.15
2018-07-08T15:58:43.901Z,20.64
2018-07-08T16:01:11.968Z,20.20
2018-07-08T16:03:40.056Z,19.96
2018-07-08T16:06:08.479Z,22.26
2018-07-08T16:08:36.497Z,21.70
2018-07-08T16:11:04.843Z,20.52
2018-07-08T16:13:32.944Z,22.67
2018-07-08T16:16:01.669Z,20.91
2018-07-08T16:18:29.883Z,21.15
2018-07-08T16:20:57.917Z,20.69
2018-07-08T16:23:26.066Z,21.18
2018-07-08T16:25:54.589Z,20.29
2018-07-08T16:28:22.596Z,21.52
2018-07-08T16:30:50.676Z,20.77
2018-07-08T16:33:18.757Z,21.09
2018-07-08T16:35:51.631Z,20.65
2018-07-08T16:38:19.763Z,19.18
2018-07-08T16:40:48.011Z,20.32
2018-07-08T16:43:16.119Z,21.21
2018-07-08T16:45:44.224Z,21.43
2018-07-08T16:48:12.393Z,20.41
2018-07-08T16:50:40.468Z,20.97
2018-07-08T16:53:08.822Z,19.47
2018-07-08T16:55:37.338Z,21.41
2018-07-08T16:58:06.129Z,20.39
2018-07-08T17:00:34.248Z,20.12
2018-07-08T17:03:02.332Z,20.13
2018-07-08T17:05:30.460Z,18.96
2018-07-08T17:07:58.869Z,19.98
2018-07-08T17:10:26.957Z,18.62
2018-07-08T17:12:55.040Z,18.19
2018-07-08T17:15:23.145Z,19.02
2018-07-08T17:17:51.238Z,19.14
2018-07-08T17:20:19.360Z,19.37
2018-07-08T17:22:47.435Z,21.73
2018-07-08T17:25:15.516Z,21.64
2018-07-08T17:27:43.586Z,20.59
2018-07-08T17:30:11.657Z,22.08
2018-07-08T17:32:39.733Z,21.26
2018-07-08T17:35:08.528Z,22.03
2018-07-08T17:37:36.601Z,21.23
2018-07-08T17:40:04.706Z,21.81
2018-07-08T17:42:32.773Z,22.78
2018-07-08T17:45:00.848Z,22.40
2018-07-08T17:47:28.948Z,22.17
2018-07-08T17:49:57.031Z,22.52
2018-07-08T17:52:25.109Z,22.30
2018-07-08T17:54:53.180Z,21.38
2018-07-08T17:57:21.373Z,21.61
2018-07-08T17:59:49.431Z,22.44
2018-07-08T18:02:17.508Z,23.46
2018-07-08T18:04:45.580Z,23.85
2018-07-08T18:07:13.634Z,24.47
2018-07-08T18:09:42.021Z,24.29
2018-07-08T18:12:10.092Z,24.89
2018-07-08T18:14:38.181Z,25.23
2018-07-08T18:17:06.294Z,25.38
2018-07-08T18:19:34.402Z,24.83
2018-07-08T18:22:02.881Z,24.15
2018-07-08T18:24:31.156Z,24.77
2018-07-08T18:26:59.284Z,24.82
2018-07-08T18:29:27.355Z,25.83
2018-07-08T18:31:55.704Z,25.28
2018-07-08T18:34:23.763Z,25.78
2018-07-08T18:36:51.843Z,26.34
2018-07-08T18:39:19.916Z,26.50
2018-07-08T18:41:48.000Z,27.01
2018-07-08T18:44:16.081Z,27.13
2018-07-08T18:46:44.171Z,27.08
2018-07-08T18:49:12.273Z,27.20
2018-07-08T18:51:40.728Z,27.29
2018-07-08T18:54:08.805Z,27.41
2018-07-08T18:56:36.919Z,26.93
2018-07-08T18:59:05.010Z,27.10
2018-07-08T19:01:33.115Z,28.26
2018-07-08T19:04:01.195Z,29.31
2018-07-08T19:06:29.266Z,28.98
2018-07-08T19:08:57.334Z,29.05
2018-07-08T19:11:25.411Z,29.81
2018-07-08T19:13:53.492Z,30.31
2018-07-08T19:16:21.573Z,33.92
2018-07-08T19:18:49.648Z,33.59
2018-07-08T19:21:17.704Z,33.06
2018-07-08T19:23:45.796Z,32.64
2018-07-08T19:26:13.956Z,34.77
2018-07-08T19:28:42.050Z,36.38
2018-07-08T19:31:10.112Z,34.77
2018-07-08T19:33:38.190Z,37.24
2018-07-08T19:36:06.268Z,38.89
2018-07-08T19:38:34.395Z,38.73
2018-07-08T19:41:02.786Z,37.73
2018-07-08T19:43:30.887Z,40.37
2018-07-08T19:45:58.995Z,40.20
2018-07-08T19:48:27.089Z,41.76
2018-07-08T19:50:55.180Z,41.34
2018-07-08T19:53:23.269Z,41.82
2018-07-08T19:55:51.699Z,37.87
2018-07-08T19:58:19.780Z,39.98
2018-07-08T20:00:48.196Z,41.04
2018-07-08T20:03:16.283Z,39.39
2018-07-08T20:05:44.358Z,41.00
2018-07-08T20:08:12.921Z,41.11
2018-07-08T20:10:40.973Z,40.45
2018-07-08T20:13:09.041Z,40.22
2018-07-08T20:15:37.229Z,40.12
2018-07-08T20:18:05.336Z,39.72
2018-07-08T20:20:33.411Z,40.35
2018-07-08T20:23:01.766Z,40.15
2018-07-08T20:25:29.859Z,39.07
2018-07-08T20:27:58.176Z,40.69
2018-07-08T20:30:26.336Z,40.27
2018-07-08T20:32:54.840Z,41.71
2018-07-08T20:35:22.970Z,42.97
2018-07-08T20:37:51.020Z,43.22
2018-07-08T20:40:19.096Z,42.66
2018-07-08T20:42:47.257Z,44.44
2018-07-08T20:45:15.419Z,47.13
2018-07-08T20:47:44.069Z,44.94
2018-07-08T20:50:12.136Z,47.03
2018-07-08T20:52:40.217Z,47.52
2018-07-08T20:55:08.303Z,47.49
2018-07-08T20:57:36.363Z,48.35
2018-07-08T21:00:04.529Z,48.53
2018-07-08T21:02:44.648Z,48.53
2018-07-08T21:05:12.715Z,50.87
2018-07-08T21:07:41.183Z,51.48
2018-07-08T21:10:09.545Z,50.10
2018-07-08T21:12:37.627Z,52.93
2018-07-08T21:15:06.019Z,52.29
2018-07-08T21:17:34.072Z,51.52
2018-07-08T21:20:02.153Z,53.85
2018-07-08T21:22:30.513Z,54.72
2018-07-08T21:24:58.644Z,54.10
2018-07-08T21:27:26.716Z,55.96
2018-07-08T21:29:54.791Z,53.67
2018-07-08T21:32:22.868Z,54.12
2018-07-08T21:34:50.940Z,54.89
2018-07-08T21:37:19.114Z,54.73
2018-07-08T21:39:47.167Z,55.83
2018-07-08T21:42:16.261Z,57.32
2018-07-08T21:44:45.703Z,55.77
2018-07-08T21:47:13.830Z,55.48
2018-07-08T21:49:41.826Z,55.61
2018-07-08T21:52:09.910Z,54.22
2018-07-08T21:54:37.985Z,53.23
2018-07-08T21:57:06.076Z,53.09
2018-07-08T23:48:49.885Z,62.29
2018-07-08T23:51:18.215Z,63.17
2018-07-08T23:53:46.485Z,64.60
2018-07-08T23:56:14.736Z,64.37
2018-07-08T23:58:43.713Z,63.54
